Time;durP1;ratioP1;P1;durP2;ratioP2;P2;SDS_P1;SDS_P2;PMS_P1;PMS_P2;Temp;Humidity;BMP_temperature;BMP_pressure;BME280_temperature;BME280_humidity;BME280_pressure;Samples;Min_cycle;Max_cycle;Signal;HPM_P1;HPM_P2
2022/01/21 00:00:17;;;;;;;23.95;22.40;;;2.10;80.90;;;;;;5035628;28;20221;-72
2022/01/21 00:02:45;;;;;;;23.48;21.15;;;2.10;80.50;;;;;;5036040;28;20292;-73
2022/01/21 00:05:13;;;;;;;23.27;21.65;;;2.10;80.60;;;;;;5035859;28;20762;-73
2022/01/21 00:07:40;;;;;;;22.75;20.88;;;2.00;80.80;;;;;;5035484;28;20223;-73
2022/01/21 00:10:08;;;;;;;23.00;21.02;;;2.10;81.20;;;;;;5035375;28;20217;-72
2022/01/21 00:12:37;;;;;;;22.80;20.95;;;2.00;80.60;;;;;;5035872;28;20200;-72
2022/01/21 00:15:06;;;;;;;21.98;20.38;;;2.00;80.20;;;;;;5035692;28;20288;-72
2022/01/21 00:17:33;;;;;;;21.75;20.25;;;1.90;80.90;;;;;;5035819;28;20204;-73
2022/01/21 00:31:07;;;;;;;22.52;21.00;;;2.00;80.10;;;;;;5025650;28;20260;-72
2022/01/21 00:33:34;;;;;;;21.75;20.27;;;1.90;80.30;;;;;;5035462;28;20284;-73
2022/01/21 00:36:02;;;;;;;21.75;20.25;;;1.90;80.90;;;;;;5035427;28;20201;-72
2022/01/21 00:38:30;;;;;;;22.98;21.00;;;2.00;80.60;;;;;;5034832;28;20288;-72
2022/01/21 00:41:01;;;;;;;21.67;20.27;;;2.00;80.40;;;;;;5035106;28;20221;-72
2022/01/21 00:43:31;;;;;;;21.83;20.25;;;2.10;80.30;;;;;;5035338;28;20212;-73
2022/01/21 00:45:59;;;;;;;21.58;20.27;;;2.10;80.20;;;;;;5035083;28;20540;-73
2022/01/21 00:48:26;;;;;;;22.13;20.60;;;2.10;81.70;;;;;;5035124;28;20225;-73
2022/01/21 00:50:52;;;;;;;21.92;20.33;;;2.10;80.10;;;;;;5034957;28;20229;-72
2022/01/21 00:53:21;;;;;;;22.02;20.52;;;2.10;79.70;;;;;;5034961;28;20738;-72
2022/01/21 00:55:48;;;;;;;22.35;20.80;;;2.10;81.20;;;;;;5034765;28;20203;-72
2022/01/21 00:58:15;;;;;;;21.90;20.25;;;2.30;79.60;;;;;;5034772;28;20197;-73
2022/01/21 01:00:42;;;;;;;22.25;20.83;;;2.10;79.70;;;;;;5034663;28;20213;-73
2022/01/21 01:03:09;;;;;;;21.65;20.25;;;2.10;80.10;;;;;;5034955;28;20376;-73
2022/01/21 01:05:36;;;;;;;22.17;20.38;;;2.10;79.70;;;;;;5034661;28;20612;-73
2022/01/21 01:08:03;;;;;;;22.23;20.63;;;2.20;79.50;;;;;;5034719;28;20221;-73
2022/01/21 01:10:45;;;;;;;22.50;20.70;;;2.20;79.20;;;;;;5034438;28;20225;-72
2022/01/21 01:21:34;;;;;;;23.80;21.83;;;2.20;80.10;;;;;;4954373;29;20231;-72
2022/01/21 01:27:36;;;;;;;22.55;20.88;;;2.30;79.50;;;;;;5014899;28;20201;-72
2022/01/21 01:29:38;;;;;;;21.33;19.92;;;2.40;79.40;;;;;;5034048;28;20378;-72
2022/01/21 01:32:06;;;;;;;21.90;20.40;;;2.40;79.10;;;;;;5034317;28;20297;-72
2022/01/21 01:34:33;;;;;;;22.27;20.75;;;2.50;79.20;;;;;;5034336;28;20197;-72
2022/01/21 01:37:05;;;;;;;22.35;20.85;;;2.40;79.00;;;;;;5034267;28;20197;-72
2022/01/21 01:39:38;;;;;;;22.75;21.00;;;2.30;78.80;;;;;;5033833;28;20217;-72
2022/01/21 01:42:36;;;;;;;22.17;20.10;;;2.40;79.00;;;;;;5034096;28;20201;-72
2022/01/21 01:50:31;;;;;;;21.00;19.70;;;2.20;79.50;;;;;;4989357;28;20209;-72
2022/01/21 01:52:57;;;;;;;22.70;20.83;;;2.20;79.40;;;;;;5033784;28;20227;-70
2022/01/21 01:55:24;;;;;;;22.30;20.80;;;2.10;80.10;;;;;;5033832;28;20664;-72
2022/01/21 01:57:54;;;;;;;21.70;20.25;;;2.10;80.40;;;;;;5033928;28;20197;-70
2022/01/21 02:00:21;;;;;;;22.10;20.40;;;2.20;79.80;;;;;;5033291;28;20312;-70
2022/01/21 02:02:48;;;;;;;21.60;20.15;;;2.20;79.70;;;;;;5034080;28;20208;-70
2022/01/21 02:05:15;;;;;;;22.77;20.73;;;2.30;79.60;;;;;;5033755;28;20227;-72
2022/01/21 02:07:46;;;;;;;22.75;21.15;;;2.30;79.50;;;;;;5033435;28;20241;-70
2022/01/21 02:10:13;;;;;;;21.02;19.73;;;2.30;79.70;;;;;;5033127;28;20308;-70
2022/01/21 02:12:41;;;;;;;21.27;19.92;;;2.30;79.90;;;;;;5033526;28;20666;-70
2022/01/21 02:15:10;;;;;;;21.80;20.10;;;2.20;80.20;;;;;;5033342;28;20201;-70
2022/01/21 02:23:07;;;;;;;22.20;20.73;;;2.10;80.70;;;;;;5033448;28;20226;-70
2022/01/21 02:25:34;;;;;;;22.08;20.48;;;2.00;81.20;;;;;;5033267;28;20283;-70
2022/01/21 02:28:02;;;;;;;21.77;20.13;;;2.10;81.30;;;;;;5033203;28;20205;-70
2022/01/21 02:30:28;;;;;;;22.17;20.60;;;2.20;81.20;;;;;;5032827;28;20729;-70
2022/01/21 02:32:57;;;;;;;22.42;20.40;;;2.00;81.70;;;;;;5033350;28;20280;-70
2022/01/21 02:35:25;;;;;;;22.83;20.83;;;2.10;81.80;;;;;;5033141;28;20579;-70
2022/01/21 02:37:53;;;;;;;20.98;19.77;;;2.00;83.00;;;;;;5033054;28;20276;-70
2022/01/21 02:40:23;;;;;;;21.83;20.42;;;2.00;82.20;;;;;;5032843;28;20302;-70
2022/01/21 02:42:50;;;;;;;22.10;20.40;;;2.00;82.30;;;;;;5033033;28;20730;-71
2022/01/21 02:45:18;;;;;;;23.30;21.55;;;2.00;81.90;;;;;;5032925;28;20586;-71
2022/01/21 02:47:46;;;;;;;21.80;20.30;;;2.00;82.30;;;;;;5032893;28;20662;-70
2022/01/21 02:50:15;;;;;;;22.58;20.95;;;2.00;81.90;;;;;;5032560;28;20309;-70
2022/01/21 02:52:55;;;;;;;21.20;19.90;;;2.10;81.60;;;;;;5032263;28;20247;-70
2022/01/21 02:55:24;;;;;;;22.38;20.73;;;2.20;81.00;;;;;;5032934;28;20193;-70
2022/01/21 02:57:52;;;;;;;21.80;20.40;;;2.10;81.50;;;;;;5032656;28;20291;-70
2022/01/21 03:00:19;;;;;;;23.52;21.60;;;2.10;82.60;;;;;;5032566;28;20239;-70
2022/01/21 03:02:46;;;;;;;23.23;21.13;;;2.00;81.00;;;;;;5032676;28;20204;-70
2022/01/21 03:05:15;;;;;;;22.42;20.65;;;1.80;81.40;;;;;;5032716;28;20197;-70
2022/01/21 03:07:45;;;;;;;22.33;20.42;;;1.80;81.90;;;;;;5032666;28;20275;-71
2022/01/21 03:10:14;;;;;;;23.33;21.25;;;2.00;81.80;;;;;;5032253;28;20249;-70
2022/01/21 03:12:43;;;;;;;22.40;20.98;;;2.00;81.00;;;;;;5032674;28;20619;-70
2022/01/21 03:15:10;;;;;;;22.05;20.45;;;2.00;80.70;;;;;;5032481;28;20207;-71
2022/01/21 03:17:37;;;;;;;36.58;22.65;;;2.00;80.70;;;;;;5032493;28;20240;-70
2022/01/21 03:20:07;;;;;;;23.20;20.83;;;2.00;80.90;;;;;;5032186;28;20218;-70
2022/01/21 03:22:34;;;;;;;20.90;19.40;;;2.00;81.00;;;;;;5032505;28;20212;-71
2022/01/21 03:25:00;;;;;;;22.65;21.33;;;2.00;81.00;;;;;;5032444;28;20197;-70
2022/01/21 03:27:27;;;;;;;23.05;21.33;;;2.00;80.90;;;;;;5032457;28;20201;-70
2022/01/21 03:29:57;;;;;;;22.15;20.65;;;2.20;80.90;;;;;;5032060;28;20633;-70
2022/01/21 03:32:24;;;;;;;22.00;20.55;;;2.20;80.70;;;;;;5032402;28;20206;-71
2022/01/21 03:34:51;;;;;;;22.23;20.80;;;2.10;80.50;;;;;;5032319;28;20594;-70
2022/01/21 03:37:18;;;;;;;24.75;23.17;;;2.10;80.80;;;;;;5032614;28;20204;-70
2022/01/21 03:39:45;;;;;;;22.83;21.20;;;2.00;80.70;;;;;;5032061;28;20640;-70
2022/01/21 03:42:12;;;;;;;23.05;21.30;;;2.00;80.70;;;;;;5032354;28;20289;-71
2022/01/21 03:44:39;;;;;;;22.10;20.40;;;2.00;82.00;;;;;;5032110;28;20632;-71
2022/01/21 03:47:07;;;;;;;22.23;20.73;;;2.10;80.90;;;;;;5032206;28;20205;-70
2022/01/21 03:49:38;;;;;;;24.40;22.42;;;2.00;80.80;;;;;;5031885;28;20228;-70
2022/01/21 03:52:06;;;;;;;23.70;22.15;;;1.90;80.80;;;;;;5032240;28;20578;-71
2022/01/21 03:54:35;;;;;;;23.50;21.80;;;1.90;81.20;;;;;;5032211;28;20289;-70
2022/01/21 03:57:02;;;;;;;23.08;21.58;;;2.00;80.90;;;;;;5032063;28;20244;-71
2022/01/21 03:59:29;;;;;;;27.65;22.67;;;1.90;80.80;;;;;;5031812;28;20213;-70
2022/01/21 04:01:57;;;;;;;23.55;21.30;;;1.90;82.00;;;;;;5031878;28;20197;-72
2022/01/21 04:04:25;;;;;;;24.13;22.02;;;1.80;81.10;;;;;;5032117;28;20294;-70
2022/01/21 04:06:52;;;;;;;23.60;21.90;;;1.70;82.00;;;;;;5032040;28;20201;-70
2022/01/21 04:09:19;;;;;;;25.42;23.35;;;1.80;82.00;;;;;;5031691;28;20239;-70
2022/01/21 04:11:45;;;;;;;24.33;22.52;;;1.70;81.70;;;;;;5032170;28;20270;-70
2022/01/21 04:14:12;;;;;;;23.90;22.38;;;1.70;81.80;;;;;;5034233;28;20204;-70
2022/01/21 04:16:39;;;;;;;25.77;23.75;;;1.70;81.70;;;;;;5035839;28;20288;-70
2022/01/21 04:19:06;;;;;;;24.52;22.73;;;1.70;83.90;;;;;;5035671;28;20197;-70
2022/01/21 04:21:34;;;;;;;25.40;23.33;;;1.90;83.20;;;;;;5035581;28;20252;-70
2022/01/21 04:24:02;;;;;;;24.35;22.33;;;2.00;82.50;;;;;;5035715;28;20223;-72
2022/01/21 04:26:29;;;;;;;25.50;23.80;;;2.00;81.50;;;;;;5035531;28;20193;-71
2022/01/21 04:28:56;;;;;;;23.45;21.67;;;1.90;80.90;;;;;;5035434;28;20687;-72
2022/01/21 04:31:23;;;;;;;24.83;22.40;;;1.80;81.40;;;;;;5035405;28;20217;-71
2022/01/21 04:33:50;;;;;;;25.23;23.25;;;1.80;81.90;;;;;;5035461;28;20654;-70
2022/01/21 04:36:17;;;;;;;24.02;22.02;;;1.70;81.70;;;;;;5035414;28;20284;-70
2022/01/21 04:38:45;;;;;;;22.83;21.20;;;1.70;81.90;;;;;;5035240;28;20679;-70
2022/01/21 04:41:36;;;;;;;26.75;24.85;;;1.60;81.80;;;;;;5035025;28;20249;-70
2022/01/21 04:49:32;;;;;;;24.08;22.13;;;1.60;81.90;;;;;;5034983;28;20223;-72
2022/01/21 04:52:03;;;;;;;24.85;22.95;;;1.60;82.10;;;;;;5035104;28;20593;-70
2022/01/21 04:54:32;;;;;;;23.45;21.60;;;1.60;82.00;;;;;;5035020;28;20205;-73
2022/01/21 04:56:59;;;;;;;23.85;21.75;;;1.80;81.60;;;;;;5034974;28;20287;-73
2022/01/21 04:59:26;;;;;;;24.60;23.15;;;1.80;81.40;;;;;;5034621;28;20225;-73
2022/01/21 05:01:53;;;;;;;25.90;23.88;;;1.80;82.10;;;;;;5034606;28;20549;-72
2022/01/21 05:04:21;;;;;;;26.13;23.80;;;1.70;81.60;;;;;;5034909;28;20224;-72
2022/01/21 05:06:49;;;;;;;24.65;22.95;;;1.80;81.70;;;;;;5034698;28;20193;-70
2022/01/21 05:09:17;;;;;;;24.70;22.67;;;1.80;81.40;;;;;;5034371;28;20559;-72
2022/01/21 05:11:46;;;;;;;28.05;24.20;;;1.70;81.70;;;;;;5034870;28;20701;-72
2022/01/21 05:14:17;;;;;;;24.83;22.83;;;1.80;81.70;;;;;;5034651;28;20678;-72
2022/01/21 05:16:47;;;;;;;25.70;23.65;;;1.80;81.30;;;;;;5034744;28;20255;-72
2022/01/21 05:19:16;;;;;;;24.90;22.60;;;1.70;81.80;;;;;;5034349;28;20215;-72
2022/01/21 05:21:43;;;;;;;25.45;23.20;;;1.70;82.10;;;;;;5034600;28;20255;-72
2022/01/21 05:24:11;;;;;;;23.30;21.67;;;1.70;82.70;;;;;;5034111;28;20280;-72
2022/01/21 05:26:41;;;;;;;25.48;23.10;;;1.80;82.80;;;;;;5033673;28;20675;-72
2022/01/21 05:29:11;;;;;;;24.52;22.20;;;1.90;81.90;;;;;;5034175;28;20212;-72
2022/01/21 05:31:38;;;;;;;24.00;22.20;;;1.70;81.90;;;;;;5034480;28;20208;-72
2022/01/21 05:34:05;;;;;;;25.90;23.80;;;1.70;82.60;;;;;;5034353;28;20205;-72
2022/01/21 05:36:33;;;;;;;24.20;22.45;;;1.80;82.20;;;;;;5034375;28;20207;-72
2022/01/21 05:39:00;;;;;;;24.80;22.80;;;1.80;81.60;;;;;;5034160;28;20201;-72
2022/01/21 05:41:27;;;;;;;24.65;22.95;;;1.90;81.60;;;;;;5033898;28;20304;-72
2022/01/21 05:44:01;;;;;;;24.70;23.00;;;1.90;81.70;;;;;;5034028;28;20208;-72
2022/01/21 05:46:44;;;;;;;24.58;22.77;;;1.90;81.40;;;;;;5034120;28;20201;-72
2022/01/21 05:49:11;;;;;;;24.17;22.23;;;2.00;82.60;;;;;;5033668;28;20624;-73
2022/01/21 05:51:38;;;;;;;25.98;24.17;;;1.80;81.70;;;;;;5033815;28;20228;-72
2022/01/21 05:54:05;;;;;;;25.52;23.83;;;1.80;81.50;;;;;;5033898;28;20699;-73
2022/01/21 05:56:32;;;;;;;25.30;23.23;;;1.80;81.80;;;;;;5033858;28;20193;-72
2022/01/21 05:59:00;;;;;;;23.90;22.23;;;1.80;81.80;;;;;;5033947;28;20236;-72
2022/01/21 06:01:27;;;;;;;26.95;24.50;;;1.80;81.70;;;;;;5033301;28;20578;-72
2022/01/21 06:03:55;;;;;;;24.95;22.75;;;1.80;81.60;;;;;;5033771;28;20198;-73
2022/01/21 06:06:22;;;;;;;25.17;23.48;;;1.80;81.90;;;;;;5033529;28;20204;-73
2022/01/21 06:08:49;;;;;;;25.02;22.75;;;1.80;81.70;;;;;;5033553;28;20666;-72
2022/01/21 06:11:16;;;;;;;25.88;23.67;;;1.90;82.50;;;;;;5033485;28;20221;-72
2022/01/21 06:13:44;;;;;;;25.35;23.75;;;1.90;82.40;;;;;;5033608;28;20633;-73
2022/01/21 06:16:11;;;;;;;25.75;23.67;;;2.00;83.70;;;;;;5033714;28;21172;-73
2022/01/21 06:18:38;;;;;;;25.95;23.77;;;2.00;82.20;;;;;;5033434;28;20562;-73
2022/01/21 06:21:06;;;;;;;23.65;21.90;;;2.10;81.90;;;;;;5033299;28;20276;-72
2022/01/21 06:23:33;;;;;;;26.88;24.60;;;2.10;81.20;;;;;;5033412;28;20519;-73
2022/01/21 06:26:00;;;;;;;26.70;24.30;;;2.20;81.10;;;;;;5033437;28;20213;-72
2022/01/21 06:28:27;;;;;;;27.70;25.75;;;2.10;80.70;;;;;;5033428;28;20197;-72
2022/01/21 06:30:54;;;;;;;28.05;25.85;;;2.10;81.40;;;;;;5032891;28;20225;-73
2022/01/21 06:33:21;;;;;;;28.20;26.02;;;2.10;80.70;;;;;;5033112;28;20735;-73
2022/01/21 06:35:49;;;;;;;25.27;23.30;;;2.10;80.70;;;;;;5032636;28;20229;-72
2022/01/21 06:38:17;;;;;;;26.77;24.58;;;2.00;80.70;;;;;;5033191;28;20231;-72
2022/01/21 06:40:44;;;;;;;24.17;22.50;;;2.10;80.40;;;;;;5032963;28;20249;-73
2022/01/21 06:43:11;;;;;;;27.25;25.10;;;2.00;80.30;;;;;;5033159;28;20193;-72
2022/01/21 06:45:38;;;;;;;29.17;27.08;;;2.00;80.70;;;;;;5032996;28;20201;-73
2022/01/21 06:48:05;;;;;;;26.58;24.30;;;1.90;80.80;;;;;;5032927;28;20292;-72
2022/01/21 06:50:35;;;;;;;28.08;26.05;;;1.90;81.00;;;;;;5032633;28;20318;-72
2022/01/21 06:53:02;;;;;;;25.10;23.30;;;2.00;81.00;;;;;;5032941;28;20293;-72
2022/01/21 06:55:30;;;;;;;29.10;26.30;;;2.00;80.70;;;;;;5032853;28;20651;-73
2022/01/21 06:57:57;;;;;;;27.95;25.13;;;2.00;81.10;;;;;;5032757;28;20667;-72
2022/01/21 07:00:24;;;;;;;24.58;22.77;;;2.00;81.60;;;;;;5032385;28;20217;-72
2022/01/21 07:02:53;;;;;;;27.55;25.52;;;1.90;80.90;;;;;;5032866;28;20228;-72
2022/01/21 07:05:25;;;;;;;27.35;25.35;;;1.80;81.60;;;;;;5032734;28;20693;-72
2022/01/21 07:07:52;;;;;;;28.50;25.98;;;1.80;81.40;;;;;;5032286;28;20212;-72
2022/01/21 07:10:19;;;;;;;25.45;23.45;;;1.70;81.80;;;;;;5032309;28;20225;-72
2022/01/21 07:12:47;;;;;;;26.17;24.30;;;1.80;81.80;;;;;;5032459;28;20715;-72
2022/01/21 07:15:17;;;;;;;28.45;26.25;;;1.90;81.40;;;;;;5032428;28;20198;-72
2022/01/21 07:17:44;;;;;;;26.35;24.52;;;1.90;81.90;;;;;;5032577;28;20205;-72
2022/01/21 07:20:12;;;;;;;27.30;25.13;;;1.90;82.30;;;;;;5032451;28;20311;-72
2022/01/21 07:22:40;;;;;;;27.05;25.08;;;2.00;81.50;;;;;;5032513;28;20207;-71
2022/01/21 07:25:07;;;;;;;25.98;24.15;;;1.70;81.90;;;;;;5032524;28;20201;-72
2022/01/21 07:27:34;;;;;;;28.38;26.13;;;1.70;82.20;;;;;;5032487;28;20563;-70
2022/01/21 07:30:05;;;;;;;25.70;23.95;;;1.80;82.20;;;;;;5032065;28;20229;-72
2022/01/21 07:32:32;;;;;;;28.63;26.17;;;2.00;82.00;;;;;;5032487;28;20201;-73
2022/01/21 07:34:59;;;;;;;27.08;24.88;;;2.00;83.00;;;;;;5032392;28;20284;-70
2022/01/21 07:37:25;;;;;;;27.75;25.05;;;1.90;82.10;;;;;;5032368;28;20220;-71
2022/01/21 07:39:52;;;;;;;26.33;24.40;;;1.90;81.90;;;;;;5032091;28;20543;-70
2022/01/21 07:42:19;;;;;;;28.77;26.42;;;1.90;81.80;;;;;;5032380;28;20722;-71
2022/01/21 07:44:47;;;;;;;29.83;27.10;;;2.10;81.00;;;;;;5032170;28;20240;-71
2022/01/21 07:47:15;;;;;;;27.92;25.88;;;2.10;81.20;;;;;;5032408;28;20283;-71
2022/01/21 07:49:43;;;;;;;27.52;25.52;;;1.90;80.90;;;;;;5035158;28;20708;-70
2022/01/21 07:52:10;;;;;;;26.35;24.45;;;1.90;81.50;;;;;;5036137;28;20205;-70
2022/01/21 07:54:37;;;;;;;29.40;27.13;;;2.00;81.30;;;;;;5036058;28;20203;-70
2022/01/21 07:57:05;;;;;;;29.88;26.92;;;2.20;81.50;;;;;;5036155;28;20280;-70
2022/01/21 07:59:32;;;;;;;28.20;26.10;;;2.20;85.10;;;;;;5035817;28;20323;-70
2022/01/21 08:01:58;;;;;;;27.20;24.70;;;2.40;83.10;;;;;;5035744;28;20288;-70
2022/01/21 08:04:27;;;;;;;28.55;26.15;;;2.40;80.60;;;;;;5035821;28;20205;-72
2022/01/21 08:06:54;;;;;;;29.38;27.27;;;2.40;80.40;;;;;;5035795;28;20619;-71
2022/01/21 08:09:24;;;;;;;27.67;25.42;;;2.40;80.20;;;;;;5035591;28;20198;-70
2022/01/21 08:11:51;;;;;;;29.33;26.95;;;2.20;80.10;;;;;;5035819;28;20225;-70
2022/01/21 08:14:18;;;;;;;28.25;25.90;;;2.20;80.60;;;;;;5035770;28;20204;-70
2022/01/21 08:16:45;;;;;;;326.27;50.45;;;2.40;82.70;;;;;;5035848;28;20626;-70
2022/01/21 08:19:13;;;;;;;27.70;25.73;;;2.60;87.40;;;;;;5035371;28;20204;-70
2022/01/21 08:21:42;;;;;;;26.88;24.73;;;2.70;82.40;;;;;;5035644;28;20744;-71
2022/01/21 08:24:09;;;;;;;27.80;25.33;;;2.70;81.20;;;;;;5035533;28;20197;-71
2022/01/21 08:26:38;;;;;;;28.13;25.92;;;2.80;80.60;;;;;;5035549;28;20201;-71
2022/01/21 08:29:07;;;;;;;26.83;24.65;;;2.80;78.30;;;;;;5035489;28;20197;-71
2022/01/21 08:31:34;;;;;;;27.50;25.58;;;2.90;78.20;;;;;;5035487;28;20217;-71
2022/01/21 08:34:01;;;;;;;27.27;25.33;;;2.90;77.10;;;;;;5035368;28;20205;-71
2022/01/21 08:36:29;;;;;;;26.95;25.10;;;2.90;77.50;;;;;;5035427;28;20220;-71
2022/01/21 08:38:57;;;;;;;27.83;25.33;;;2.90;77.50;;;;;;5035277;28;20207;-71
2022/01/21 08:41:24;;;;;;;27.75;25.38;;;2.90;77.40;;;;;;5035107;28;20781;-71
2022/01/21 08:43:51;;;;;;;27.58;25.30;;;2.90;77.50;;;;;;5035436;28;20304;-71
2022/01/21 08:46:18;;;;;;;28.52;26.27;;;3.10;77.20;;;;;;5035324;28;20233;-71
2022/01/21 08:48:45;;;;;;;26.90;24.75;;;3.20;76.50;;;;;;5035185;28;20203;-71
2022/01/21 08:51:15;;;;;;;31.77;29.00;;;2.90;75.90;;;;;;5034736;28;20344;-71
2022/01/21 08:53:45;;;;;;;27.92;25.40;;;3.00;76.40;;;;;;5035220;28;20209;-71
2022/01/21 08:56:15;;;;;;;29.33;27.08;;;2.90;76.70;;;;;;5035234;28;20197;-71
2022/01/21 08:58:46;;;;;;;30.05;27.42;;;2.90;77.40;;;;;;5034737;28;20288;-71
2022/01/21 09:01:14;;;;;;;28.65;26.35;;;3.00;76.50;;;;;;5034628;28;20221;-71
2022/01/21 09:03:43;;;;;;;29.92;27.73;;;2.90;76.60;;;;;;5034917;28;20280;-71
2022/01/21 09:06:12;;;;;;;28.50;25.90;;;2.70;76.80;;;;;;5034813;28;20284;-71
2022/01/21 09:08:41;;;;;;;28.85;26.65;;;2.50;77.80;;;;;;5034780;28;20635;-71
2022/01/21 09:11:08;;;;;;;27.92;25.83;;;2.60;78.00;;;;;;5034502;28;20218;-71
2022/01/21 09:13:40;;;;;;;30.73;28.02;;;2.70;78.10;;;;;;5034687;28;20746;-72
2022/01/21 09:16:08;;;;;;;29.90;27.25;;;2.90;77.40;;;;;;5034701;28;20579;-72
2022/01/21 09:18:45;;;;;;;28.58;26.15;;;2.90;76.90;;;;;;5034589;28;20305;-72
2022/01/21 09:21:13;;;;;;;27.73;25.45;;;3.10;77.00;;;;;;5034455;28;20622;-72
2022/01/21 09:23:40;;;;;;;29.25;27.00;;;3.30;76.60;;;;;;5034773;28;20260;-72
2022/01/21 09:26:07;;;;;;;28.05;25.80;;;3.40;76.20;;;;;;5034614;28;20202;-72
2022/01/21 09:28:36;;;;;;;38.70;29.15;;;3.50;75.80;;;;;;5034387;28;20202;-72
2022/01/21 09:31:03;;;;;;;30.33;27.63;;;3.50;75.10;;;;;;5034066;28;20221;-72
2022/01/21 09:33:30;;;;;;;28.52;25.83;;;3.50;74.50;;;;;;5034406;28;20288;-72
2022/01/21 09:35:56;;;;;;;28.05;25.85;;;3.50;75.30;;;;;;5034287;28;20193;-72
2022/01/21 09:38:24;;;;;;;27.60;25.42;;;3.30;75.00;;;;;;5034222;28;20284;-72
2022/01/21 09:40:52;;;;;;;28.27;26.38;;;3.40;75.50;;;;;;5033940;28;20626;-72
2022/01/21 09:43:21;;;;;;;29.05;26.80;;;3.50;75.60;;;;;;5034309;28;20197;-72
2022/01/21 09:45:52;;;;;;;30.38;27.77;;;3.70;76.00;;;;;;5034002;28;20240;-72
2022/01/21 09:48:23;;;;;;;27.50;25.30;;;3.80;75.90;;;;;;5034218;28;20655;-72
2022/01/21 09:50:52;;;;;;;27.40;25.60;;;4.10;74.90;;;;;;5033776;28;20221;-72
2022/01/21 09:53:24;;;;;;;28.38;26.38;;;4.20;76.70;;;;;;5033932;28;20213;-72
2022/01/21 09:55:51;;;;;;;28.50;26.50;;;4.20;73.30;;;;;;5033953;28;20631;-72
2022/01/21 09:58:19;;;;;;;30.02;27.75;;;4.00;73.20;;;;;;5033867;28;20280;-72
2022/01/21 10:00:46;;;;;;;29.75;27.63;;;3.90;76.10;;;;;;5033387;28;20229;-72
2022/01/21 10:03:16;;;;;;;30.00;27.10;;;4.10;78.00;;;;;;5033766;28;20552;-72
2022/01/21 10:05:46;;;;;;;113.63;32.63;;;4.30;78.90;;;;;;5033776;28;20667;-72
2022/01/21 10:08:13;;;;;;;27.42;25.50;;;4.50;84.50;;;;;;5033762;28;20513;-72
2022/01/21 10:10:41;;;;;;;73.65;29.98;;;4.80;76.00;;;;;;5032782;28;20372;-72
2022/01/21 10:13:08;;;;;;;28.33;26.13;;;4.70;78.40;;;;;;5033615;28;20204;-72
2022/01/21 10:15:37;;;;;;;28.67;26.73;;;4.70;73.90;;;;;;5033579;28;20237;-72
2022/01/21 10:18:06;;;;;;;26.15;24.25;;;4.50;72.00;;;;;;5033519;28;20208;-72
2022/01/21 10:20:35;;;;;;;25.38;23.10;;;4.20;70.80;;;;;;5033239;28;20249;-72
2022/01/21 10:23:05;;;;;;;25.85;24.05;;;4.10;72.00;;;;;;5033479;28;20205;-72
2022/01/21 10:25:34;;;;;;;29.27;27.08;;;3.90;71.90;;;;;;5033403;28;20288;-72
2022/01/21 10:28:13;;;;;;;28.42;25.60;;;3.90;72.30;;;;;;5033383;28;20201;-72
2022/01/21 10:30:41;;;;;;;26.77;24.98;;;3.40;73.60;;;;;;5032943;28;20219;-72
2022/01/21 10:33:19;;;;;;;26.42;24.60;;;3.60;73.90;;;;;;5033220;28;20205;-72
2022/01/21 10:35:49;;;;;;;27.10;25.00;;;3.70;73.30;;;;;;5033251;28;20682;-72
2022/01/21 10:38:18;;;;;;;29.17;26.75;;;3.40;73.40;;;;;;5033124;28;20202;-72
2022/01/21 10:40:47;;;;;;;28.27;26.17;;;3.30;74.00;;;;;;5032876;28;20217;-72
2022/01/21 10:43:15;;;;;;;31.63;28.67;;;3.10;74.80;;;;;;5032954;28;20303;-72
2022/01/21 10:45:53;;;;;;;28.05;25.83;;;3.10;75.90;;;;;;5032974;28;20203;-72
2022/01/21 10:48:20;;;;;;;29.67;27.13;;;3.10;75.40;;;;;;5032992;28;20200;-72
2022/01/21 10:51:15;;;;;;;28.17;25.88;;;3.10;76.00;;;;;;5032694;28;20221;-72
2022/01/21 10:53:43;;;;;;;26.85;24.80;;;3.20;75.30;;;;;;5032778;28;20632;-72
2022/01/21 10:56:12;;;;;;;25.75;23.85;;;3.20;75.20;;;;;;5032710;28;20252;-72
2022/01/21 10:58:40;;;;;;;27.23;25.05;;;3.40;76.30;;;;;;5032729;28;20574;-72
2022/01/21 11:01:13;;;;;;;28.17;25.80;;;3.70;74.40;;;;;;5032194;28;20645;-72
2022/01/21 11:03:57;;;;;;;28.52;26.50;;;3.90;73.70;;;;;;5032758;28;20201;-72
2022/01/21 11:06:29;;;;;;;29.98;27.88;;;3.90;72.60;;;;;;5032456;28;20245;-72
2022/01/21 11:09:21;;;;;;;26.42;24.13;;;3.90;75.40;;;;;;5032709;28;20283;-72
2022/01/21 11:11:50;;;;;;;26.35;24.45;;;4.10;74.90;;;;;;5032619;28;20224;-72
2022/01/21 11:14:19;;;;;;;26.83;24.23;;;4.20;74.00;;;;;;5032636;28;20288;-72
2022/01/21 11:16:47;;;;;;;25.50;23.35;;;4.50;72.70;;;;;;5032523;28;20203;-72
2022/01/21 11:19:26;;;;;;;26.70;24.65;;;4.50;71.40;;;;;;5032160;28;20201;-72
2022/01/21 11:21:56;;;;;;;25.83;24.08;;;4.00;70.60;;;;;;5032619;28;20200;-72
2022/01/21 11:24:25;;;;;;;25.15;23.25;;;3.70;71.90;;;;;;5032481;28;20610;-72
2022/01/21 11:27:20;;;;;;;26.65;24.48;;;3.80;71.80;;;;;;5032389;28;20193;-72
2022/01/21 11:29:48;;;;;;;25.10;23.23;;;3.90;71.90;;;;;;4997211;28;20752;-72
2022/01/21 11:32:18;;;;;;;26.10;24.30;;;3.90;74.50;;;;;;5032543;28;20229;-72
2022/01/21 11:34:49;;;;;;;25.70;24.00;;;3.90;71.30;;;;;;5032379;28;20542;-72
2022/01/21 11:37:18;;;;;;;25.42;23.25;;;4.00;71.70;;;;;;5032384;28;20224;-72
2022/01/21 11:39:45;;;;;;;27.10;25.30;;;4.00;71.10;;;;;;5032101;28;20220;-72
2022/01/21 11:42:13;;;;;;;25.83;23.77;;;4.20;71.20;;;;;;5032424;28;20280;-72
2022/01/21 11:44:47;;;;;;;26.73;24.48;;;4.50;70.60;;;;;;5032418;28;20288;-72
2022/01/21 11:47:28;;;;;;;26.15;24.10;;;4.60;69.80;;;;;;5032437;28;20670;-72
2022/01/21 11:49:57;;;;;;;26.70;24.55;;;4.60;69.40;;;;;;5032118;28;20217;-72
2022/01/21 11:52:25;;;;;;;27.20;25.15;;;4.40;69.30;;;;;;5031884;28;20263;-72
2022/01/21 11:54:53;;;;;;;25.38;23.45;;;4.20;70.00;;;;;;5032235;28;20201;-73
2022/01/21 11:57:29;;;;;;;25.15;23.25;;;4.30;70.50;;;;;;5032228;28;20197;-72
2022/01/21 12:00:04;;;;;;;23.80;22.40;;;4.50;73.00;;;;;;5031974;28;20216;-72
2022/01/21 12:02:33;;;;;;;26.55;24.45;;;4.70;73.70;;;;;;5031956;28;20190;-72
2022/01/21 12:05:02;;;;;;;22.73;21.33;;;4.80;68.20;;;;;;5032267;28;20202;-72
2022/01/21 12:07:49;;;;;;;25.52;23.15;;;4.30;68.60;;;;;;5031928;28;20201;-72
2022/01/21 12:10:29;;;;;;;25.27;23.55;;;4.10;69.60;;;;;;5031729;28;20710;-72
2022/01/21 12:13:09;;;;;;;23.52;21.88;;;4.30;70.00;;;;;;5031907;28;20228;-72
2022/01/21 12:19:11;;;;;;;23.63;21.92;;;4.40;69.00;;;;;;5022924;28;20186;-72
2022/01/21 12:21:41;;;;;;;25.15;23.23;;;3.90;70.30;;;;;;5031861;28;20197;-72
2022/01/21 12:24:10;;;;;;;26.83;24.50;;;4.00;70.50;;;;;;5031786;28;20202;-72
2022/01/21 12:26:54;;;;;;;24.15;22.55;;;3.90;70.70;;;;;;5031870;28;20209;-72
2022/01/21 12:29:24;;;;;;;27.85;25.48;;;3.80;71.00;;;;;;5031769;28;20220;-72
2022/01/21 12:32:01;;;;;;;27.02;25.13;;;3.80;71.50;;;;;;5031834;28;20275;-71
2022/01/21 12:34:30;;;;;;;24.77;22.90;;;3.90;70.90;;;;;;5032875;28;20235;-72
2022/01/21 12:36:58;;;;;;;25.45;23.67;;;3.80;70.80;;;;;;5035355;28;20197;-72
2022/01/21 12:39:44;;;;;;;26.20;24.20;;;3.90;71.60;;;;;;5034996;28;20303;-72
2022/01/21 12:42:29;;;;;;;25.35;23.65;;;4.00;71.10;;;;;;5035409;28;20193;-72
2022/01/21 12:44:58;;;;;;;25.10;23.20;;;3.90;71.60;;;;;;5035229;28;20271;-72
2022/01/21 12:47:34;;;;;;;26.35;24.42;;;3.60;72.30;;;;;;5035226;28;20208;-72
2022/01/21 12:50:08;;;;;;;24.70;22.90;;;3.80;72.50;;;;;;5034996;28;20695;-72
2022/01/21 12:52:47;;;;;;;26.85;25.00;;;4.10;71.90;;;;;;5035118;28;20307;-72
2022/01/21 12:58:16;;;;;;;27.55;25.48;;;4.20;71.60;;;;;;5035079;28;20203;-72
2022/01/21 13:00:44;;;;;;;26.77;24.85;;;4.30;71.40;;;;;;5034571;28;20221;-72
2022/01/21 13:03:19;;;;;;;25.35;23.88;;;4.10;71.80;;;;;;5034831;28;20193;-72
2022/01/21 13:05:57;;;;;;;26.48;24.63;;;3.70;73.20;;;;;;5034678;28;20659;-72
2022/01/21 13:08:36;;;;;;;23.70;21.70;;;3.50;74.50;;;;;;5034935;28;20208;-72
2022/01/21 13:11:19;;;;;;;23.58;21.95;;;3.70;74.50;;;;;;5034596;28;20316;-72
2022/01/21 13:13:52;;;;;;;25.25;23.10;;;4.00;73.50;;;;;;5034775;28;20620;-72
2022/01/21 13:16:28;;;;;;;24.80;22.63;;;4.10;73.00;;;;;;5034793;28;20204;-72
2022/01/21 13:19:03;;;;;;;24.17;22.85;;;4.20;72.90;;;;;;5034696;28;20288;-72
2022/01/21 13:21:31;;;;;;;25.30;23.25;;;4.10;72.80;;;;;;5034433;28;20715;-72
2022/01/21 13:24:00;;;;;;;25.83;24.13;;;3.90;74.00;;;;;;5034539;28;20198;-72
2022/01/21 13:26:31;;;;;;;24.70;22.80;;;4.10;75.90;;;;;;5034596;28;20197;-72
2022/01/21 13:29:03;;;;;;;26.40;24.05;;;4.30;73.00;;;;;;5034768;28;20212;-72
2022/01/21 13:31:35;;;;;;;24.77;23.17;;;4.30;72.50;;;;;;5033980;28;20216;-72